Disclaimer

Please do not use the information listed here in-flight or in-navigation, as they are not provided to us by the airports but are provided by volunteers, so they might be outdated.

Search


Regions


Airport information page

Radio informations:
MAIQUETIA TWR - 118.1 MHz
MAIQUETIA RDO - 130.1 MHz
Ground (GND) - 121.9 MHz
MAIQUETIA DEP - 118.4 MHz
CLD - 119.5 MHz
Automatic Terminal Information Service (ATIS) - 114.8 MHz
MAIQUETIA APP - 120.1 MHz

Airport informations:
Latitude: 10° 36' 11.22" N
Longitude: 066° 59' 26.10" W
Elevation: 235 feet - 72 meters
Operating hours: N/A
Operating agency: Civil government, landing fees and diplomatic clearance may be required
Timezone: UTC-4
Fuel: Jet A1, without icing nhibitor.

100/130 MIL Spec, low lead, aviation gasoline (BLUE)

Runway information:
09/27 - 9930 x 145 feet< - >3027 x 44 meters
10/28 - 11483 x 148 feet< - >3500 x 45 meters

Recent METARs:
SVMI 211600Z 05003KT 9999 SCT016 29/23 Q1013
SVMI 211700Z 05004KT 9999 SCT016 29/24 Q1014
SVMI 211700Z 05004KT 9999 SCT016 29/24 Q1014

Airport on the map: